createdAt,value
2023-01-13T00:00:15.884Z,100254.88
2023-01-13T00:02:42.733Z,100246.31
2023-01-13T00:05:10.409Z,100242.56
2023-01-13T00:07:40.038Z,100242.69
2023-01-13T00:10:11.373Z,100241.59
2023-01-13T00:12:42.255Z,100227.56
2023-01-13T00:15:11.647Z,100226.91
2023-01-13T00:17:38.924Z,100231.28
2023-01-13T00:20:06.782Z,100226.97
2023-01-13T00:22:35.257Z,100225.47
2023-01-13T00:25:04.223Z,100222.59
2023-01-13T00:27:31.503Z,100215.41
2023-01-13T00:29:58.470Z,100209.03
2023-01-13T00:32:25.263Z,100220.53
2023-01-13T00:34:55.944Z,100230.28
2023-01-13T00:37:23.415Z,100231.13
2023-01-13T00:39:53.165Z,100238.91
2023-01-13T00:42:39.489Z,100230.88
2023-01-13T00:45:11.398Z,100225.97
2023-01-13T00:47:38.939Z,100227.56
2023-01-13T00:50:09.377Z,100223.38
2023-01-13T00:52:36.556Z,100218.19
2023-01-13T00:55:03.547Z,100197.41
2023-01-13T00:57:30.193Z,100221.72
2023-01-13T00:59:56.816Z,100228.66
2023-01-13T01:02:23.506Z,100228.84
2023-01-13T01:04:50.260Z,100220.38
2023-01-13T01:07:17.184Z,100216.81
2023-01-13T01:09:43.896Z,100219.31
2023-01-13T01:12:10.634Z,100203.94
2023-01-13T01:14:37.267Z,100205.75
2023-01-13T01:17:04.004Z,100211.09
2023-01-13T01:19:30.679Z,100203.25
2023-01-13T01:21:57.299Z,100232.69
2023-01-13T01:24:24.032Z,100234.84
2023-01-13T01:26:50.722Z,100231.63
2023-01-13T01:29:17.911Z,100233.34
2023-01-13T01:31:44.695Z,100221.16
2023-01-13T01:34:11.613Z,100208.63
2023-01-13T01:36:39.449Z,100217.16
2023-01-13T01:39:06.806Z,100190.59
2023-01-13T01:41:35.796Z,100194.06
2023-01-13T01:44:25.963Z,100199.34
2023-01-13T01:46:53.770Z,100226.31
2023-01-13T01:49:33.229Z,100241.84
2023-01-13T01:52:07.028Z,100233.25
2023-01-13T01:54:53.152Z,100256.56
2023-01-13T01:57:27.648Z,100248.91
2023-01-13T01:59:54.784Z,100252.59
2023-01-13T02:02:22.446Z,100242.53
2023-01-13T02:04:53.695Z,100245.41
2023-01-13T02:07:27.299Z,100240.53
2023-01-13T02:09:56.641Z,100250.19
2023-01-13T02:12:32.169Z,100239.41
2023-01-13T02:15:23.052Z,100236.91
2023-01-13T02:18:36.249Z,100248.28
2023-01-13T02:22:08.096Z,100243.03
2023-01-13T02:24:55.938Z,100245.97
2023-01-13T02:27:50.799Z,100248.41
2023-01-13T02:30:48.550Z,100243.47
2023-01-13T02:33:38.165Z,100243.09
2023-01-13T02:36:27.097Z,100242.38
2023-01-13T02:39:49.045Z,100244.25
2023-01-13T02:42:46.955Z,100241.88
2023-01-13T02:45:21.110Z,100231.72
2023-01-13T02:47:50.701Z,100236.19
2023-01-13T02:50:23.986Z,100237.97
2023-01-13T02:52:57.014Z,100231.31
2023-01-13T02:55:49.762Z,100229.63
2023-01-13T02:58:26.155Z,100229.41
2023-01-13T03:00:53.007Z,100232.47
2023-01-13T03:03:19.766Z,100230.84
2023-01-13T03:05:48.781Z,100230.03
2023-01-13T03:08:39.527Z,100234.47
2023-01-13T03:11:09.595Z,100228.56
2023-01-13T03:14:17.293Z,100226.16
2023-01-13T03:17:20.302Z,100225.41
2023-01-13T03:20:17.891Z,100220.00
2023-01-13T03:22:58.973Z,100205.19
2023-01-13T03:25:33.250Z,100215.06
2023-01-13T03:28:10.023Z,100213.53
2023-01-13T03:30:45.119Z,100223.94
2023-01-13T03:33:19.888Z,100229.25
2023-01-13T03:35:53.024Z,100227.59
2023-01-13T03:38:33.873Z,100231.19
2023-01-13T03:41:07.610Z,100223.59
2023-01-13T03:44:12.935Z,100219.09
2023-01-13T03:46:52.737Z,100219.31
2023-01-13T03:49:23.857Z,100221.81
2023-01-13T03:51:58.377Z,100227.94
2023-01-13T03:54:31.966Z,100226.47
2023-01-13T03:57:09.940Z,100224.47
2023-01-13T03:59:42.949Z,100219.69
2023-01-13T04:02:47.195Z,100225.75
2023-01-13T04:05:14.459Z,100219.69
2023-01-13T04:08:09.829Z,100226.56
2023-01-13T04:10:45.585Z,100231.72
2023-01-13T04:13:19.162Z,100229.50
2023-01-13T04:15:47.035Z,100228.41
2023-01-13T04:18:21.401Z,100235.34
2023-01-13T04:20:50.644Z,100227.81
2023-01-13T04:23:19.035Z,100225.94
2023-01-13T04:25:56.301Z,100235.31
2023-01-13T04:28:23.914Z,100225.88
2023-01-13T04:30:52.232Z,100228.69
2023-01-13T04:33:21.038Z,100224.44
2023-01-13T04:35:49.218Z,100229.72
2023-01-13T04:38:20.326Z,100230.59
2023-01-13T04:40:49.066Z,100227.75
2023-01-13T04:43:16.862Z,100228.47
2023-01-13T04:45:44.419Z,100227.44
2023-01-13T04:48:12.096Z,100238.38
2023-01-13T04:50:40.023Z,100235.75
2023-01-13T04:53:07.565Z,100238.34
2023-01-13T04:55:35.494Z,100254.59
2023-01-13T04:58:11.956Z,100252.22
2023-01-13T05:00:38.920Z,100262.59
2023-01-13T05:03:05.619Z,100242.88
2023-01-13T05:05:32.489Z,100222.38
2023-01-13T05:07:59.648Z,100216.41
2023-01-13T05:10:27.131Z,100232.69
2023-01-13T05:13:12.313Z,100233.56
2023-01-13T05:16:01.361Z,100223.25
2023-01-13T05:18:31.160Z,100225.16
2023-01-13T05:20:57.994Z,100237.16
2023-01-13T05:23:44.341Z,100234.56
2023-01-13T05:26:11.367Z,100237.03
2023-01-13T05:28:38.624Z,100232.75
2023-01-13T05:31:05.786Z,100232.53
2023-01-13T05:33:33.670Z,100232.53
2023-01-13T05:36:03.029Z,100231.50
2023-01-13T05:38:29.758Z,100237.19
2023-01-13T05:41:18.596Z,100246.81
2023-01-13T05:43:45.298Z,100238.28
2023-01-13T05:46:12.458Z,100235.47
2023-01-13T05:48:42.833Z,100244.94
2023-01-13T05:51:12.336Z,100240.94
2023-01-13T05:53:40.889Z,100245.22
2023-01-13T05:56:09.262Z,100245.56
2023-01-13T05:58:35.960Z,100254.13
2023-01-13T06:01:07.167Z,100240.50
2023-01-13T06:03:34.408Z,100248.16
2023-01-13T06:06:02.216Z,100237.25
2023-01-13T06:08:30.286Z,100247.94
2023-01-13T06:10:57.219Z,100257.25
2023-01-13T06:13:25.319Z,100254.66
2023-01-13T06:15:56.569Z,100251.25
2023-01-13T06:18:24.261Z,100260.63
2023-01-13T06:20:51.224Z,100264.09
2023-01-13T06:23:18.082Z,100260.41
2023-01-13T06:25:55.792Z,100270.94
2023-01-13T06:28:22.569Z,100266.75
2023-01-13T06:30:56.472Z,100271.13
2023-01-13T06:33:31.917Z,100275.59
2023-01-13T06:36:06.196Z,100270.28
2023-01-13T06:38:37.670Z,100265.34
2023-01-13T06:41:07.177Z,100265.22
2023-01-13T06:43:34.075Z,100280.03
2023-01-13T06:46:02.655Z,100266.97
2023-01-13T06:48:35.041Z,100278.97
2023-01-13T06:51:03.810Z,100278.25
2023-01-13T06:53:34.834Z,100279.19
2023-01-13T06:56:01.591Z,100281.94
2023-01-13T06:58:28.244Z,100274.06
2023-01-13T07:00:55.071Z,100272.47
2023-01-13T07:03:21.804Z,100268.28
2023-01-13T07:05:56.051Z,100275.06
2023-01-13T07:08:24.196Z,100278.53
2023-01-13T07:10:51.290Z,100283.59
2023-01-13T07:13:36.608Z,100290.28
2023-01-13T07:16:07.508Z,100289.53
2023-01-13T07:18:35.559Z,100282.88
2023-01-13T07:21:05.957Z,100292.50
2023-01-13T07:23:37.323Z,100287.16
2023-01-13T07:26:05.215Z,100279.63
2023-01-13T07:28:32.783Z,100293.03
2023-01-13T07:31:01.203Z,100297.47
2023-01-13T07:33:28.107Z,100282.84
2023-01-13T07:36:01.260Z,100298.44
2023-01-13T07:38:28.819Z,100300.88
2023-01-13T07:40:55.586Z,100312.28
2023-01-13T07:43:31.979Z,100311.41
2023-01-13T07:46:04.835Z,100309.78
2023-01-13T07:48:35.203Z,100308.47
2023-01-13T07:51:07.641Z,100323.22
2023-01-13T07:53:35.174Z,100312.13
2023-01-13T07:56:04.011Z,100312.91
2023-01-13T07:58:30.873Z,100312.88
2023-01-13T08:00:57.909Z,100313.16
2023-01-13T08:03:25.158Z,100319.41
2023-01-13T08:05:51.982Z,100314.19
2023-01-13T08:08:19.455Z,100318.47
2023-01-13T08:10:46.329Z,100325.50
2023-01-13T08:13:20.793Z,100325.50
2023-01-13T08:15:50.500Z,100324.38
2023-01-13T08:18:21.919Z,100338.84
2023-01-13T08:20:52.301Z,100335.31
2023-01-13T08:23:21.656Z,100331.75
2023-01-13T08:25:49.453Z,100341.06
2023-01-13T08:28:17.763Z,100352.22
2023-01-13T08:30:44.745Z,100341.84
2023-01-13T08:33:12.746Z,100346.97
2023-01-13T08:35:42.107Z,100340.13
2023-01-13T08:38:09.181Z,100352.13
2023-01-13T08:40:36.682Z,100358.88
2023-01-13T08:43:03.888Z,100362.25
2023-01-13T08:45:31.055Z,100368.09
2023-01-13T08:47:58.048Z,100370.75
2023-01-13T08:50:24.757Z,100360.34
2023-01-13T08:52:51.500Z,100363.69
2023-01-13T08:55:18.354Z,100361.09
2023-01-13T08:57:45.261Z,100364.63
2023-01-13T09:00:13.509Z,100370.75
2023-01-13T09:02:40.764Z,100368.84
2023-01-13T09:05:09.451Z,100371.41
2023-01-13T09:07:39.067Z,100370.38
2023-01-13T09:10:08.033Z,100374.66
2023-01-13T09:12:53.531Z,100360.75
2023-01-13T09:15:21.635Z,100376.84
2023-01-13T09:17:48.499Z,100371.66
2023-01-13T09:20:15.406Z,100355.13
2023-01-13T09:22:42.210Z,100379.06
2023-01-13T09:25:12.742Z,100376.47
2023-01-13T09:27:39.960Z,100360.84
2023-01-13T09:30:08.088Z,100366.63
2023-01-13T09:32:35.531Z,100372.63
2023-01-13T09:35:02.857Z,100376.91
2023-01-13T09:37:39.159Z,100377.88
2023-01-13T09:40:15.916Z,100386.50
2023-01-13T09:43:41.905Z,100382.13
2023-01-13T09:46:36.277Z,100381.31
2023-01-13T09:49:03.939Z,100384.78
2023-01-13T09:51:38.773Z,100382.13
2023-01-13T09:54:22.920Z,100390.72
2023-01-13T09:56:49.706Z,100405.31
2023-01-13T09:59:16.559Z,100412.19
2023-01-13T10:01:54.424Z,100403.25
2023-01-13T10:04:27.913Z,100405.78
2023-01-13T10:07:03.764Z,100418.56
2023-01-13T10:09:47.143Z,100416.13
2023-01-13T10:12:40.948Z,100405.84
2023-01-13T10:15:16.570Z,100406.59
2023-01-13T10:17:53.208Z,100412.63
2023-01-13T10:20:31.529Z,100409.16
2023-01-13T10:23:10.439Z,100406.25
2023-01-13T10:26:11.287Z,100420.00
2023-01-13T10:28:38.268Z,100413.81
2023-01-13T10:31:12.313Z,100404.41
2023-01-13T10:33:39.119Z,100404.47
2023-01-13T10:36:13.799Z,100401.97
2023-01-13T10:38:47.316Z,100388.09
2023-01-13T10:41:17.832Z,100407.88
2023-01-13T10:44:09.492Z,100411.28
2023-01-13T10:46:53.120Z,100410.09
2023-01-13T10:49:33.555Z,100409.19
2023-01-13T10:52:02.726Z,100402.19
2023-01-13T10:54:30.740Z,100421.88
2023-01-13T10:57:24.164Z,100424.25
2023-01-13T10:59:52.955Z,100426.38
2023-01-13T11:02:30.524Z,100432.97
2023-01-13T11:04:58.138Z,100437.13
2023-01-13T11:07:52.418Z,100427.44
2023-01-13T11:10:24.003Z,100431.81
2023-01-13T11:13:11.901Z,100428.59
2023-01-13T11:16:04.011Z,100436.44
2023-01-13T11:19:13.229Z,100432.25
2023-01-13T11:22:01.799Z,100420.16
2023-01-13T11:24:37.087Z,100428.13
2023-01-13T11:27:45.069Z,100433.34
2023-01-13T11:31:01.642Z,100424.81
2023-01-13T11:33:42.205Z,100435.97
2023-01-13T11:36:20.391Z,100440.19
2023-01-13T11:39:03.584Z,100438.53
2023-01-13T11:42:21.560Z,100426.69
2023-01-13T11:45:22.713Z,100458.22
2023-01-13T11:47:54.923Z,100450.31
2023-01-13T11:50:47.992Z,100443.31
2023-01-13T11:53:45.288Z,100441.16
2023-01-13T11:56:39.560Z,100440.06
2023-01-13T11:59:32.405Z,100442.78
2023-01-13T12:02:08.444Z,100446.41
2023-01-13T12:05:09.179Z,100435.88
2023-01-13T12:08:03.529Z,100441.78
2023-01-13T12:10:46.202Z,100445.44
2023-01-13T12:13:24.333Z,100448.09
2023-01-13T12:16:23.611Z,100443.81
2023-01-13T12:19:09.105Z,100440.16
2023-01-13T12:21:55.156Z,100438.53
2023-01-13T12:24:48.501Z,100444.38
2023-01-13T12:27:48.484Z,100468.66
2023-01-13T12:30:36.939Z,100466.31
2023-01-13T12:33:38.876Z,100484.88
2023-01-13T12:36:43.138Z,100494.69
2023-01-13T12:39:18.675Z,100503.84
2023-01-13T12:43:07.675Z,100508.38
2023-01-13T12:45:34.928Z,100528.47
2023-01-13T12:48:01.839Z,100529.56
2023-01-13T12:50:29.119Z,100524.19
2023-01-13T12:53:30.482Z,100526.09
2023-01-13T12:56:36.486Z,100534.84
2023-01-13T12:59:33.969Z,100543.59
2023-01-13T13:02:13.170Z,100545.44
2023-01-13T13:04:51.167Z,100535.97
2023-01-13T13:07:35.929Z,100540.81
2023-01-13T13:10:15.923Z,100554.47
2023-01-13T13:13:01.154Z,100565.78
2023-01-13T13:15:36.289Z,100562.31
2023-01-13T13:18:20.850Z,100562.41
2023-01-13T13:21:11.095Z,100557.34
2023-01-13T13:24:02.901Z,100563.31
2023-01-13T13:26:35.389Z,100561.63
2023-01-13T13:29:42.111Z,100563.34
2023-01-13T13:32:19.263Z,100558.88
2023-01-13T13:35:04.891Z,100569.09
2023-01-13T13:38:10.664Z,100564.03
2023-01-13T13:41:04.451Z,100564.78
2023-01-13T13:44:07.829Z,100568.00
2023-01-13T13:46:49.744Z,100572.25
2023-01-13T13:49:17.630Z,100579.75
2023-01-13T13:52:10.915Z,100590.00
2023-01-13T13:54:42.152Z,100592.44
2023-01-13T13:57:19.616Z,100587.22
2023-01-13T14:00:07.034Z,100597.44
2023-01-13T14:02:41.960Z,100587.09
2023-01-13T14:05:22.742Z,100586.16
2023-01-13T14:08:00.794Z,100603.47
2023-01-13T14:10:37.253Z,100593.06
2023-01-13T14:13:24.974Z,100604.22
2023-01-13T14:16:06.810Z,100621.50
2023-01-13T14:18:47.679Z,100617.22
2023-01-13T14:21:22.128Z,100626.66
2023-01-13T14:24:17.485Z,100629.28
2023-01-13T14:26:44.599Z,100631.88
2023-01-13T14:29:24.117Z,100631.06
2023-01-13T14:31:53.385Z,100643.16
2023-01-13T14:34:32.031Z,100649.38
2023-01-13T14:37:02.802Z,100646.81
2023-01-13T14:39:41.642Z,100658.00
2023-01-13T14:42:13.634Z,100667.47
2023-01-13T14:44:48.507Z,100664.88
2023-01-13T14:47:28.206Z,100664.13
2023-01-13T14:50:11.745Z,100672.75
2023-01-13T14:53:00.662Z,100671.91
2023-01-13T14:55:40.199Z,100672.69
2023-01-13T14:58:22.221Z,100679.59
2023-01-13T15:00:51.368Z,100678.72
2023-01-13T15:03:20.985Z,100700.19
2023-01-13T15:05:52.898Z,100700.09
2023-01-13T15:08:29.730Z,100711.34
2023-01-13T15:11:04.425Z,100724.38
2023-01-13T15:13:53.039Z,100727.84
2023-01-13T15:16:26.551Z,100735.69
2023-01-13T15:18:56.416Z,100736.63
2023-01-13T15:21:23.976Z,100741.81
2023-01-13T15:23:51.031Z,100740.13
2023-01-13T15:26:29.617Z,100745.19
2023-01-13T15:28:59.045Z,100759.88
2023-01-13T15:31:29.183Z,100751.25
2023-01-13T15:33:56.139Z,100765.84
2023-01-13T15:36:34.409Z,100768.41
2023-01-13T15:39:01.974Z,100764.03
2023-01-13T15:41:53.802Z,100770.91
2023-01-13T15:44:39.041Z,100775.28
2023-01-13T15:47:08.472Z,100785.63
2023-01-13T15:49:43.442Z,100783.03
2023-01-13T15:52:21.687Z,100792.53
2023-01-13T15:54:49.831Z,100790.78
2023-01-13T15:57:31.762Z,100802.88
2023-01-13T16:00:03.980Z,100810.50
2023-01-13T16:02:33.381Z,100809.69
2023-01-13T16:05:00.054Z,100812.22
2023-01-13T16:07:26.817Z,100818.25
2023-01-13T16:09:53.700Z,100821.72
2023-01-13T16:12:20.534Z,100819.94
2023-01-13T16:14:47.199Z,100819.97
2023-01-13T16:17:25.083Z,100819.06
2023-01-13T16:19:52.080Z,100827.69
2023-01-13T16:22:18.885Z,100831.88
2023-01-13T16:24:45.794Z,100833.63
2023-01-13T16:27:15.900Z,100832.84
2023-01-13T16:29:44.226Z,100831.09
2023-01-13T16:32:11.428Z,100839.63
2023-01-13T16:34:38.371Z,100847.38
2023-01-13T16:37:22.733Z,100850.78
2023-01-13T16:39:50.026Z,100855.94
2023-01-13T16:42:16.862Z,100854.25
2023-01-13T16:44:44.186Z,100864.63
2023-01-13T16:47:16.459Z,100865.56
2023-01-13T16:49:43.925Z,100869.88
2023-01-13T16:52:11.050Z,100869.88
2023-01-13T16:54:37.760Z,100883.63
2023-01-13T16:57:04.790Z,100881.91
2023-01-13T16:59:31.817Z,100890.50
2023-01-13T17:01:58.501Z,100901.69
2023-01-13T17:04:25.574Z,100900.00
2023-01-13T17:07:03.970Z,100905.16
2023-01-13T17:09:31.313Z,100912.03
2023-01-13T17:11:58.911Z,100899.16
2023-01-13T17:14:26.453Z,100905.25
2023-01-13T17:16:55.450Z,100913.00
2023-01-13T17:19:24.767Z,100921.63
2023-01-13T17:21:51.515Z,100931.16
2023-01-13T17:24:18.678Z,100936.59
2023-01-13T17:26:49.246Z,100950.47
2023-01-13T17:29:22.985Z,100941.91
2023-01-13T17:31:51.086Z,100954.91
2023-01-13T17:34:19.167Z,100950.63
2023-01-13T17:36:45.853Z,100948.00
2023-01-13T17:39:21.802Z,100946.25
2023-01-13T17:41:48.563Z,100941.00
2023-01-13T17:44:20.957Z,100938.41
2023-01-13T17:46:47.752Z,100945.19
2023-01-13T17:49:17.496Z,100943.34
2023-01-13T17:51:48.082Z,100944.13
2023-01-13T17:54:15.697Z,100942.47
2023-01-13T17:56:42.852Z,100954.41
2023-01-13T17:59:13.450Z,100942.22
2023-01-13T18:01:40.786Z,100943.78
2023-01-13T18:04:10.987Z,100956.66
2023-01-13T18:06:37.681Z,100950.41
2023-01-13T18:09:04.395Z,100962.44
2023-01-13T18:11:31.105Z,100955.53
2023-01-13T18:13:57.991Z,100967.50
2023-01-13T18:16:27.420Z,100970.06
2023-01-13T18:19:19.074Z,100972.69
2023-01-13T18:22:05.896Z,100975.25
2023-01-13T18:24:51.838Z,100982.94
2023-01-13T18:27:24.182Z,100980.44
2023-01-13T18:29:53.930Z,100975.31
2023-01-13T18:32:23.154Z,100981.16
2023-01-13T18:34:53.966Z,100982.81
2023-01-13T18:37:26.182Z,100986.34
2023-01-13T18:39:53.320Z,100988.03
2023-01-13T18:42:38.499Z,100991.44
2023-01-13T18:45:05.713Z,100996.66
2023-01-13T18:47:33.540Z,101001.78
2023-01-13T18:50:00.651Z,100998.31
2023-01-13T18:52:28.527Z,101004.31
2023-01-13T18:54:55.231Z,101012.94
2023-01-13T18:57:22.285Z,101012.09
2023-01-13T18:59:49.239Z,101016.50
2023-01-13T19:02:20.058Z,101019.13
2023-01-13T19:04:47.750Z,101034.63
2023-01-13T19:07:23.536Z,101026.09
2023-01-13T19:09:50.394Z,101032.09
2023-01-13T19:12:23.513Z,101034.66
2023-01-13T19:14:50.222Z,101039.84
2023-01-13T19:17:17.040Z,101039.00
2023-01-13T19:19:50.904Z,101038.19
2023-01-13T19:22:37.841Z,101041.72
2023-01-13T19:25:05.476Z,101048.56
2023-01-13T19:27:32.367Z,101034.81
2023-01-13T19:30:00.753Z,101045.09
2023-01-13T19:32:30.663Z,101046.03
2023-01-13T19:34:59.518Z,101047.91
2023-01-13T19:37:30.211Z,101050.56
2023-01-13T19:40:00.588Z,101060.91
2023-01-13T19:42:46.392Z,101065.31
2023-01-13T19:45:27.784Z,101069.56
2023-01-13T19:47:56.239Z,101075.56
2023-01-13T19:50:23.612Z,101070.47
2023-01-13T19:52:50.336Z,101081.56
2023-01-13T19:55:17.241Z,101101.44
2023-01-13T19:57:43.946Z,101095.47
2023-01-13T20:00:15.172Z,101098.13
2023-01-13T20:02:47.819Z,101099.91
2023-01-13T20:05:18.244Z,101107.63
2023-01-13T20:07:44.976Z,101118.06
2023-01-13T20:10:13.322Z,101108.66
2023-01-13T20:12:41.578Z,101117.31
2023-01-13T20:15:10.418Z,101125.94
2023-01-13T20:17:37.724Z,101114.84
2023-01-13T20:20:05.677Z,101120.00
2023-01-13T20:22:32.462Z,101110.63
2023-01-13T20:24:59.108Z,101121.78
2023-01-13T20:27:26.037Z,101125.22
2023-01-13T20:29:52.727Z,101131.28
2023-01-13T20:32:19.806Z,101127.75
2023-01-13T20:34:46.729Z,101133.69
2023-01-13T20:37:13.786Z,101145.72
2023-01-13T20:39:44.282Z,101143.13
2023-01-13T20:42:39.573Z,101152.50
2023-01-13T20:45:07.092Z,101153.38
2023-01-13T20:47:33.912Z,101168.06
2023-01-13T20:50:00.596Z,101169.78
2023-01-13T20:52:28.255Z,101166.34
2023-01-13T20:54:55.269Z,101167.25
2023-01-13T20:57:22.368Z,101161.31
2023-01-13T20:59:49.274Z,101156.13
2023-01-13T21:02:17.389Z,101175.97
2023-01-13T21:04:44.370Z,101170.97
2023-01-13T21:07:11.499Z,101173.53
2023-01-13T21:09:38.160Z,101180.44
2023-01-13T21:12:24.560Z,101171.88
2023-01-13T21:15:09.943Z,101166.78
2023-01-13T21:17:55.599Z,101180.53
2023-01-13T21:20:22.769Z,101175.28
2023-01-13T21:22:50.205Z,101171.84
2023-01-13T21:25:18.655Z,101176.19
2023-01-13T21:27:46.615Z,101181.38
2023-01-13T21:30:15.848Z,101189.97
2023-01-13T21:32:44.572Z,101183.09
2023-01-13T21:35:12.590Z,101173.66
2023-01-13T21:37:41.269Z,101187.41
2023-01-13T21:40:16.033Z,101186.56
2023-01-13T21:43:02.244Z,101200.31
2023-01-13T21:45:50.144Z,101204.59
2023-01-13T21:48:17.282Z,101214.84
2023-01-13T21:50:45.359Z,101208.06
2023-01-13T21:53:12.231Z,101206.28
2023-01-13T21:55:39.380Z,101207.19
2023-01-13T21:58:14.658Z,101212.31
2023-01-13T22:00:43.811Z,101207.16
2023-01-13T22:03:14.757Z,101215.78
2023-01-13T22:05:41.780Z,101223.56
2023-01-13T22:08:11.675Z,101231.34
2023-01-13T22:10:57.756Z,101233.94
2023-01-13T22:13:44.676Z,101237.41
2023-01-13T22:16:11.806Z,101228.91
2023-01-13T22:18:38.578Z,101234.00
2023-01-13T22:21:06.560Z,101234.78
2023-01-13T22:23:33.941Z,101232.16
2023-01-13T22:26:06.314Z,101238.13
2023-01-13T22:28:51.061Z,101239.81
2023-01-13T22:31:23.645Z,101238.94
2023-01-13T22:33:55.720Z,101246.69
2023-01-13T22:36:26.777Z,101247.50
2023-01-13T22:38:56.362Z,101238.91
2023-01-13T22:41:23.960Z,101250.09
2023-01-13T22:43:50.749Z,101249.22
2023-01-13T22:46:18.128Z,101263.03
2023-01-13T22:48:46.257Z,101264.81
2023-01-13T22:51:16.092Z,101266.59
2023-01-13T22:53:43.391Z,101264.03
2023-01-13T22:56:18.002Z,101264.03
2023-01-13T22:58:44.947Z,101257.13
2023-01-13T23:01:17.279Z,101263.09
2023-01-13T23:03:47.652Z,101261.34
2023-01-13T23:06:14.818Z,101260.50
2023-01-13T23:08:41.830Z,101258.78
2023-01-13T23:11:13.074Z,101263.94
2023-01-13T23:13:42.817Z,101256.19
2023-01-13T23:16:17.034Z,101263.91
2023-01-13T23:18:48.099Z,101272.47
2023-01-13T23:21:23.683Z,101269.09
2023-01-13T23:23:51.085Z,101288.09
2023-01-13T23:26:18.343Z,101293.25
2023-01-13T23:28:45.291Z,101295.78
2023-01-13T23:31:21.267Z,101297.50
2023-01-13T23:33:48.895Z,101300.09
2023-01-13T23:36:20.123Z,101311.28
2023-01-13T23:38:47.293Z,101314.81
2023-01-13T23:41:17.515Z,101307.09
2023-01-13T23:43:44.340Z,101307.06
2023-01-13T23:46:14.091Z,101315.63
2023-01-13T23:48:40.900Z,101309.59
2023-01-13T23:51:11.716Z,101308.75
2023-01-13T23:53:45.042Z,101307.03
2023-01-13T23:56:17.967Z,101296.72
2023-01-13T23:58:45.397Z,101297.56
